sensor_id;sensor_type;location;lat;lon;timestamp;P1;durP1;ratioP1;P2;durP2;ratioP2
9964;SDS011;5023;53.554;9.964;2022-10-31T00:03:45;24.83;;;17.63;;
9964;SDS011;5023;53.554;9.964;2022-10-31T00:08:49;21.02;;;17.20;;
9964;SDS011;5023;53.554;9.964;2022-10-31T00:13:53;26.95;;;17.58;;
9964;SDS011;5023;53.554;9.964;2022-10-31T00:18:58;26.52;;;19.70;;
9964;SDS011;5023;53.554;9.964;2022-10-31T00:24:01;26.67;;;18.80;;
9964;SDS011;5023;53.554;9.964;2022-10-31T00:29:03;26.48;;;19.70;;
9964;SDS011;5023;53.554;9.964;2022-10-31T00:34:07;28.00;;;21.70;;
9964;SDS011;5023;53.554;9.964;2022-10-31T00:39:09;23.67;;;18.67;;
9964;SDS011;5023;53.554;9.964;2022-10-31T00:44:11;23.90;;;17.77;;
9964;SDS011;5023;53.554;9.964;2022-10-31T00:49:14;29.98;;;20.95;;
9964;SDS011;5023;53.554;9.964;2022-10-31T00:54:16;25.25;;;22.02;;
9964;SDS011;5023;53.554;9.964;2022-10-31T00:59:18;25.02;;;17.77;;
9964;SDS011;5023;53.554;9.964;2022-10-31T01:04:22;23.15;;;18.63;;
9964;SDS011;5023;53.554;9.964;2022-10-31T01:09:24;26.85;;;20.73;;
9964;SDS011;5023;53.554;9.964;2022-10-31T01:14:26;28.65;;;22.27;;
9964;SDS011;5023;53.554;9.964;2022-10-31T01:19:30;32.03;;;23.45;;
9964;SDS011;5023;53.554;9.964;2022-10-31T01:24:32;32.83;;;23.70;;
9964;SDS011;5023;53.554;9.964;2022-10-31T01:29:34;27.00;;;20.20;;
9964;SDS011;5023;53.554;9.964;2022-10-31T01:34:38;33.55;;;23.50;;
9964;SDS011;5023;53.554;9.964;2022-10-31T01:39:40;30.65;;;22.85;;
9964;SDS011;5023;53.554;9.964;2022-10-31T01:44:48;27.05;;;21.52;;
9964;SDS011;5023;53.554;9.964;2022-10-31T01:49:55;27.58;;;21.70;;
9964;SDS011;5023;53.554;9.964;2022-10-31T01:55:00;26.50;;;21.40;;
9964;SDS011;5023;53.554;9.964;2022-10-31T02:00:07;34.35;;;23.48;;
9964;SDS011;5023;53.554;9.964;2022-10-31T02:05:12;34.95;;;24.42;;
9964;SDS011;5023;53.554;9.964;2022-10-31T02:10:18;27.55;;;23.50;;
9964;SDS011;5023;53.554;9.964;2022-10-31T02:15:22;28.60;;;23.30;;
9964;SDS011;5023;53.554;9.964;2022-10-31T02:20:27;28.70;;;23.83;;
9964;SDS011;5023;53.554;9.964;2022-10-31T02:25:40;33.97;;;23.65;;
9964;SDS011;5023;53.554;9.964;2022-10-31T02:30:58;26.92;;;21.85;;
9964;SDS011;5023;53.554;9.964;2022-10-31T02:36:09;32.47;;;22.85;;
9964;SDS011;5023;53.554;9.964;2022-10-31T02:41:18;33.47;;;24.48;;
9964;SDS011;5023;53.554;9.964;2022-10-31T02:46:30;30.20;;;24.55;;
9964;SDS011;5023;53.554;9.964;2022-10-31T02:51:37;31.98;;;24.33;;
9964;SDS011;5023;53.554;9.964;2022-10-31T02:56:40;31.42;;;25.52;;
9964;SDS011;5023;53.554;9.964;2022-10-31T03:01:46;31.08;;;24.45;;
9964;SDS011;5023;53.554;9.964;2022-10-31T03:07:03;29.17;;;23.88;;
9964;SDS011;5023;53.554;9.964;2022-10-31T03:12:10;34.17;;;24.27;;
9964;SDS011;5023;53.554;9.964;2022-10-31T03:17:19;29.83;;;23.48;;
9964;SDS011;5023;53.554;9.964;2022-10-31T03:22:25;30.52;;;23.38;;
9964;SDS011;5023;53.554;9.964;2022-10-31T03:27:30;31.23;;;24.42;;
9964;SDS011;5023;53.554;9.964;2022-10-31T03:32:38;31.10;;;23.83;;
9964;SDS011;5023;53.554;9.964;2022-10-31T03:37:44;35.45;;;24.90;;
9964;SDS011;5023;53.554;9.964;2022-10-31T03:42:51;34.00;;;23.63;;
9964;SDS011;5023;53.554;9.964;2022-10-31T03:47:58;33.80;;;24.08;;
9964;SDS011;5023;53.554;9.964;2022-10-31T03:53:02;32.17;;;24.52;;
9964;SDS011;5023;53.554;9.964;2022-10-31T03:58:09;35.65;;;26.38;;
9964;SDS011;5023;53.554;9.964;2022-10-31T04:03:17;39.35;;;28.50;;
9964;SDS011;5023;53.554;9.964;2022-10-31T04:08:23;36.08;;;26.15;;
9964;SDS011;5023;53.554;9.964;2022-10-31T04:13:28;44.58;;;31.38;;
9964;SDS011;5023;53.554;9.964;2022-10-31T04:18:34;41.42;;;29.30;;
9964;SDS011;5023;53.554;9.964;2022-10-31T04:23:36;40.50;;;28.23;;
9964;SDS011;5023;53.554;9.964;2022-10-31T04:28:38;42.97;;;29.80;;
9964;SDS011;5023;53.554;9.964;2022-10-31T04:33:42;42.17;;;29.98;;
9964;SDS011;5023;53.554;9.964;2022-10-31T04:38:44;36.90;;;27.23;;
9964;SDS011;5023;53.554;9.964;2022-10-31T04:43:46;38.08;;;28.58;;
9964;SDS011;5023;53.554;9.964;2022-10-31T04:48:49;43.15;;;28.63;;
9964;SDS011;5023;53.554;9.964;2022-10-31T04:53:51;43.35;;;29.13;;
9964;SDS011;5023;53.554;9.964;2022-10-31T04:58:53;42.30;;;27.75;;
9964;SDS011;5023;53.554;9.964;2022-10-31T05:03:57;44.65;;;30.60;;
9964;SDS011;5023;53.554;9.964;2022-10-31T05:08:59;45.35;;;30.17;;
9964;SDS011;5023;53.554;9.964;2022-10-31T05:14:02;45.83;;;29.05;;
9964;SDS011;5023;53.554;9.964;2022-10-31T05:19:05;40.67;;;27.50;;
9964;SDS011;5023;53.554;9.964;2022-10-31T05:24:07;35.30;;;27.35;;
9964;SDS011;5023;53.554;9.964;2022-10-31T05:29:10;34.05;;;27.60;;
9964;SDS011;5023;53.554;9.964;2022-10-31T05:34:13;37.80;;;28.08;;
9964;SDS011;5023;53.554;9.964;2022-10-31T05:39:15;37.13;;;26.35;;
9964;SDS011;5023;53.554;9.964;2022-10-31T05:44:17;38.65;;;26.65;;
9964;SDS011;5023;53.554;9.964;2022-10-31T05:49:21;41.75;;;26.98;;
9964;SDS011;5023;53.554;9.964;2022-10-31T05:54:23;37.70;;;27.67;;
9964;SDS011;5023;53.554;9.964;2022-10-31T05:59:25;43.80;;;27.38;;
9964;SDS011;5023;53.554;9.964;2022-10-31T06:04:28;40.85;;;26.77;;
9964;SDS011;5023;53.554;9.964;2022-10-31T06:09:30;42.60;;;28.27;;
9964;SDS011;5023;53.554;9.964;2022-10-31T06:14:32;41.67;;;26.45;;
9964;SDS011;5023;53.554;9.964;2022-10-31T06:19:36;40.40;;;27.75;;
9964;SDS011;5023;53.554;9.964;2022-10-31T06:24:38;42.90;;;28.23;;
9964;SDS011;5023;53.554;9.964;2022-10-31T06:29:40;35.88;;;25.20;;
9964;SDS011;5023;53.554;9.964;2022-10-31T06:34:44;36.30;;;24.77;;
9964;SDS011;5023;53.554;9.964;2022-10-31T06:39:49;34.22;;;24.88;;
9964;SDS011;5023;53.554;9.964;2022-10-31T06:44:51;35.20;;;26.33;;
9964;SDS011;5023;53.554;9.964;2022-10-31T06:49:54;33.22;;;24.20;;
9964;SDS011;5023;53.554;9.964;2022-10-31T06:54:57;32.47;;;23.30;;
9964;SDS011;5023;53.554;9.964;2022-10-31T06:59:59;31.20;;;23.02;;
9964;SDS011;5023;53.554;9.964;2022-10-31T07:05:02;26.48;;;20.85;;
9964;SDS011;5023;53.554;9.964;2022-10-31T07:10:05;29.80;;;23.98;;
9964;SDS011;5023;53.554;9.964;2022-10-31T07:15:07;27.60;;;23.20;;
9964;SDS011;5023;53.554;9.964;2022-10-31T07:20:12;24.60;;;21.17;;
9964;SDS011;5023;53.554;9.964;2022-10-31T07:25:14;26.08;;;19.95;;
9964;SDS011;5023;53.554;9.964;2022-10-31T07:30:16;21.58;;;19.20;;
9964;SDS011;5023;53.554;9.964;2022-10-31T07:35:21;27.00;;;19.05;;
9964;SDS011;5023;53.554;9.964;2022-10-31T07:40:24;21.92;;;19.52;;
9964;SDS011;5023;53.554;9.964;2022-10-31T07:45:26;26.15;;;19.08;;
9964;SDS011;5023;53.554;9.964;2022-10-31T07:50:30;29.33;;;17.63;;
9964;SDS011;5023;53.554;9.964;2022-10-31T07:55:34;19.40;;;17.33;;
9964;SDS011;5023;53.554;9.964;2022-10-31T08:00:38;25.15;;;16.58;;
9964;SDS011;5023;53.554;9.964;2022-10-31T08:05:43;21.17;;;17.45;;
9964;SDS011;5023;53.554;9.964;2022-10-31T08:10:46;19.42;;;17.33;;
9964;SDS011;5023;53.554;9.964;2022-10-31T08:15:48;22.60;;;19.10;;
9964;SDS011;5023;53.554;9.964;2022-10-31T08:20:53;18.40;;;16.02;;
9964;SDS011;5023;53.554;9.964;2022-10-31T08:25:56;19.10;;;16.25;;
9964;SDS011;5023;53.554;9.964;2022-10-31T08:30:59;20.02;;;17.27;;
9964;SDS011;5023;53.554;9.964;2022-10-31T08:36:02;23.88;;;17.92;;
9964;SDS011;5023;53.554;9.964;2022-10-31T08:41:05;25.88;;;20.80;;
9964;SDS011;5023;53.554;9.964;2022-10-31T08:46:08;29.40;;;19.17;;
9964;SDS011;5023;53.554;9.964;2022-10-31T08:51:11;24.90;;;20.08;;
9964;SDS011;5023;53.554;9.964;2022-10-31T08:56:14;26.45;;;20.73;;
9964;SDS011;5023;53.554;9.964;2022-10-31T09:01:16;24.63;;;20.42;;
9964;SDS011;5023;53.554;9.964;2022-10-31T09:06:19;23.02;;;19.77;;
9964;SDS011;5023;53.554;9.964;2022-10-31T09:11:21;25.23;;;19.02;;
9964;SDS011;5023;53.554;9.964;2022-10-31T09:16:23;24.02;;;19.35;;
9964;SDS011;5023;53.554;9.964;2022-10-31T09:21:27;27.20;;;23.58;;
9964;SDS011;5023;53.554;9.964;2022-10-31T09:26:29;25.65;;;20.13;;
9964;SDS011;5023;53.554;9.964;2022-10-31T09:31:31;28.23;;;22.13;;
9964;SDS011;5023;53.554;9.964;2022-10-31T09:36:34;25.13;;;20.70;;
9964;SDS011;5023;53.554;9.964;2022-10-31T09:41:42;28.60;;;22.52;;
9964;SDS011;5023;53.554;9.964;2022-10-31T09:47:00;32.35;;;22.77;;
9964;SDS011;5023;53.554;9.964;2022-10-31T09:52:13;43.63;;;30.88;;
9964;SDS011;5023;53.554;9.964;2022-10-31T09:57:22;37.22;;;25.33;;
9964;SDS011;5023;53.554;9.964;2022-10-31T10:02:30;30.13;;;22.95;;
9964;SDS011;5023;53.554;9.964;2022-10-31T10:07:40;31.65;;;22.65;;
9964;SDS011;5023;53.554;9.964;2022-10-31T10:12:55;33.65;;;24.45;;
9964;SDS011;5023;53.554;9.964;2022-10-31T10:18:09;34.85;;;23.92;;
9964;SDS011;5023;53.554;9.964;2022-10-31T10:23:29;33.25;;;23.38;;
9964;SDS011;5023;53.554;9.964;2022-10-31T10:29:01;35.80;;;25.23;;
9964;SDS011;5023;53.554;9.964;2022-10-31T10:34:11;33.05;;;23.40;;
9964;SDS011;5023;53.554;9.964;2022-10-31T10:39:21;33.55;;;24.80;;
9964;SDS011;5023;53.554;9.964;2022-10-31T10:44:26;36.30;;;25.65;;
9964;SDS011;5023;53.554;9.964;2022-10-31T10:49:48;41.72;;;31.13;;
9964;SDS011;5023;53.554;9.964;2022-10-31T10:54:59;37.58;;;28.08;;
9964;SDS011;5023;53.554;9.964;2022-10-31T11:00:18;39.03;;;28.42;;
9964;SDS011;5023;53.554;9.964;2022-10-31T11:05:25;37.17;;;27.48;;
9964;SDS011;5023;53.554;9.964;2022-10-31T11:10:35;44.55;;;35.05;;
9964;SDS011;5023;53.554;9.964;2022-10-31T11:15:49;39.88;;;31.52;;
9964;SDS011;5023;53.554;9.964;2022-10-31T11:20:56;38.53;;;29.65;;
9964;SDS011;5023;53.554;9.964;2022-10-31T11:26:02;31.98;;;27.45;;
9964;SDS011;5023;53.554;9.964;2022-10-31T11:31:06;33.60;;;24.95;;
9964;SDS011;5023;53.554;9.964;2022-10-31T11:36:14;32.75;;;24.85;;
9964;SDS011;5023;53.554;9.964;2022-10-31T11:41:25;26.52;;;23.35;;
9964;SDS011;5023;53.554;9.964;2022-10-31T11:46:30;26.80;;;22.65;;
9964;SDS011;5023;53.554;9.964;2022-10-31T11:51:37;32.90;;;26.33;;
9964;SDS011;5023;53.554;9.964;2022-10-31T11:56:41;36.92;;;27.15;;
9964;SDS011;5023;53.554;9.964;2022-10-31T12:01:46;30.77;;;25.92;;
9964;SDS011;5023;53.554;9.964;2022-10-31T12:06:49;29.95;;;23.60;;
9964;SDS011;5023;53.554;9.964;2022-10-31T12:12:09;38.08;;;28.40;;
9964;SDS011;5023;53.554;9.964;2022-10-31T12:17:18;32.88;;;24.25;;
9964;SDS011;5023;53.554;9.964;2022-10-31T12:22:26;32.95;;;25.48;;
9964;SDS011;5023;53.554;9.964;2022-10-31T12:27:48;31.08;;;22.42;;
9964;SDS011;5023;53.554;9.964;2022-10-31T12:33:07;31.20;;;25.08;;
9964;SDS011;5023;53.554;9.964;2022-10-31T12:38:25;29.27;;;24.90;;
9964;SDS011;5023;53.554;9.964;2022-10-31T12:43:39;33.42;;;25.42;;
9964;SDS011;5023;53.554;9.964;2022-10-31T12:48:53;33.55;;;27.33;;
9964;SDS011;5023;53.554;9.964;2022-10-31T12:54:19;31.85;;;22.88;;
9964;SDS011;5023;53.554;9.964;2022-10-31T13:05:36;28.50;;;19.73;;
9964;SDS011;5023;53.554;9.964;2022-10-31T13:11:01;20.85;;;16.63;;
9964;SDS011;5023;53.554;9.964;2022-10-31T13:16:11;19.35;;;15.60;;
9964;SDS011;5023;53.554;9.964;2022-10-31T13:21:21;17.27;;;14.82;;
9964;SDS011;5023;53.554;9.964;2022-10-31T13:26:36;17.95;;;15.43;;
9964;SDS011;5023;53.554;9.964;2022-10-31T13:31:42;17.88;;;15.35;;
9964;SDS011;5023;53.554;9.964;2022-10-31T13:36:48;19.23;;;15.07;;
9964;SDS011;5023;53.554;9.964;2022-10-31T13:41:58;22.25;;;18.05;;
9964;SDS011;5023;53.554;9.964;2022-10-31T13:47:20;27.10;;;20.70;;
9964;SDS011;5023;53.554;9.964;2022-10-31T13:52:26;16.67;;;14.63;;
9964;SDS011;5023;53.554;9.964;2022-10-31T13:57:30;24.17;;;17.20;;
9964;SDS011;5023;53.554;9.964;2022-10-31T14:02:43;17.95;;;14.80;;
9964;SDS011;5023;53.554;9.964;2022-10-31T14:07:52;19.38;;;15.90;;
9964;SDS011;5023;53.554;9.964;2022-10-31T14:13:03;16.90;;;15.10;;
9964;SDS011;5023;53.554;9.964;2022-10-31T14:18:07;18.00;;;15.48;;
9964;SDS011;5023;53.554;9.964;2022-10-31T14:23:34;29.05;;;21.60;;
9964;SDS011;5023;53.554;9.964;2022-10-31T14:28:40;19.08;;;14.70;;
9964;SDS011;5023;53.554;9.964;2022-10-31T14:33:42;18.75;;;14.65;;
9964;SDS011;5023;53.554;9.964;2022-10-31T14:38:50;23.05;;;18.42;;
9964;SDS011;5023;53.554;9.964;2022-10-31T14:44:04;17.80;;;14.50;;
9964;SDS011;5023;53.554;9.964;2022-10-31T14:55:24;20.48;;;15.57;;
9964;SDS011;5023;53.554;9.964;2022-10-31T15:00:29;17.17;;;15.20;;
9964;SDS011;5023;53.554;9.964;2022-10-31T15:05:34;16.25;;;13.30;;
9964;SDS011;5023;53.554;9.964;2022-10-31T15:10:45;17.50;;;13.80;;
9964;SDS011;5023;53.554;9.964;2022-10-31T15:15:47;17.40;;;13.57;;
9964;SDS011;5023;53.554;9.964;2022-10-31T15:20:51;19.88;;;14.23;;
9964;SDS011;5023;53.554;9.964;2022-10-31T15:26:04;15.95;;;13.95;;
9964;SDS011;5023;53.554;9.964;2022-10-31T15:31:12;21.23;;;16.85;;
9964;SDS011;5023;53.554;9.964;2022-10-31T15:36:18;15.82;;;13.82;;
9964;SDS011;5023;53.554;9.964;2022-10-31T15:41:26;17.42;;;14.18;;
9964;SDS011;5023;53.554;9.964;2022-10-31T15:46:32;22.13;;;14.95;;
9964;SDS011;5023;53.554;9.964;2022-10-31T15:51:35;22.42;;;15.90;;
9964;SDS011;5023;53.554;9.964;2022-10-31T15:56:39;22.27;;;15.45;;
9964;SDS011;5023;53.554;9.964;2022-10-31T16:01:54;20.95;;;15.48;;
9964;SDS011;5023;53.554;9.964;2022-10-31T16:07:02;27.80;;;23.05;;
9964;SDS011;5023;53.554;9.964;2022-10-31T16:12:15;21.80;;;16.85;;
9964;SDS011;5023;53.554;9.964;2022-10-31T16:17:18;22.85;;;18.42;;
9964;SDS011;5023;53.554;9.964;2022-10-31T16:22:24;27.50;;;20.98;;
9964;SDS011;5023;53.554;9.964;2022-10-31T16:27:31;34.25;;;27.45;;
9964;SDS011;5023;53.554;9.964;2022-10-31T16:32:35;20.95;;;15.95;;
9964;SDS011;5023;53.554;9.964;2022-10-31T16:37:52;18.33;;;14.93;;
9964;SDS011;5023;53.554;9.964;2022-10-31T16:42:57;21.58;;;16.08;;
9964;SDS011;5023;53.554;9.964;2022-10-31T16:48:05;21.92;;;15.40;;
9964;SDS011;5023;53.554;9.964;2022-10-31T16:53:11;21.50;;;15.00;;
9964;SDS011;5023;53.554;9.964;2022-10-31T16:58:18;21.23;;;14.18;;
9964;SDS011;5023;53.554;9.964;2022-10-31T17:03:23;27.75;;;18.88;;
9964;SDS011;5023;53.554;9.964;2022-10-31T17:08:25;22.35;;;15.02;;
9964;SDS011;5023;53.554;9.964;2022-10-31T17:13:29;23.73;;;16.63;;
9964;SDS011;5023;53.554;9.964;2022-10-31T17:18:35;21.70;;;14.18;;
9964;SDS011;5023;53.554;9.964;2022-10-31T17:23:37;21.55;;;15.70;;
9964;SDS011;5023;53.554;9.964;2022-10-31T17:28:40;21.92;;;15.48;;
9964;SDS011;5023;53.554;9.964;2022-10-31T17:33:42;28.20;;;21.20;;
9964;SDS011;5023;53.554;9.964;2022-10-31T17:38:44;29.08;;;19.83;;
9964;SDS011;5023;53.554;9.964;2022-10-31T17:43:49;20.45;;;15.30;;
9964;SDS011;5023;53.554;9.964;2022-10-31T17:48:56;25.17;;;17.77;;
9964;SDS011;5023;53.554;9.964;2022-10-31T17:54:00;24.27;;;16.65;;
9964;SDS011;5023;53.554;9.964;2022-10-31T17:59:04;26.20;;;17.80;;
9964;SDS011;5023;53.554;9.964;2022-10-31T18:04:06;26.52;;;16.33;;
9964;SDS011;5023;53.554;9.964;2022-10-31T18:09:08;23.77;;;16.67;;
9964;SDS011;5023;53.554;9.964;2022-10-31T18:14:12;26.80;;;17.75;;
9964;SDS011;5023;53.554;9.964;2022-10-31T18:19:14;27.80;;;18.08;;
9964;SDS011;5023;53.554;9.964;2022-10-31T18:24:16;30.95;;;21.85;;
9964;SDS011;5023;53.554;9.964;2022-10-31T18:29:20;23.65;;;16.88;;
9964;SDS011;5023;53.554;9.964;2022-10-31T18:34:22;26.35;;;16.70;;
9964;SDS011;5023;53.554;9.964;2022-10-31T18:39:24;47.28;;;31.65;;
9964;SDS011;5023;53.554;9.964;2022-10-31T18:44:29;25.58;;;18.13;;
9964;SDS011;5023;53.554;9.964;2022-10-31T18:49:31;24.02;;;16.10;;
9964;SDS011;5023;53.554;9.964;2022-10-31T18:54:33;27.17;;;17.63;;
9964;SDS011;5023;53.554;9.964;2022-10-31T18:59:38;28.48;;;21.73;;
9964;SDS011;5023;53.554;9.964;2022-10-31T19:04:41;23.33;;;17.67;;
9964;SDS011;5023;53.554;9.964;2022-10-31T19:09:45;23.95;;;16.95;;
9964;SDS011;5023;53.554;9.964;2022-10-31T19:14:50;29.27;;;20.27;;
9964;SDS011;5023;53.554;9.964;2022-10-31T19:19:52;28.52;;;21.48;;
9964;SDS011;5023;53.554;9.964;2022-10-31T19:24:55;23.17;;;17.05;;
9964;SDS011;5023;53.554;9.964;2022-10-31T19:29:59;35.10;;;25.45;;
9964;SDS011;5023;53.554;9.964;2022-10-31T19:35:03;28.02;;;18.70;;
9964;SDS011;5023;53.554;9.964;2022-10-31T19:40:08;28.00;;;19.45;;
9964;SDS011;5023;53.554;9.964;2022-10-31T19:45:13;26.50;;;19.27;;
9964;SDS011;5023;53.554;9.964;2022-10-31T19:50:15;24.55;;;18.10;;
9964;SDS011;5023;53.554;9.964;2022-10-31T19:55:17;31.13;;;22.58;;
9964;SDS011;5023;53.554;9.964;2022-10-31T20:00:21;35.53;;;24.60;;
9964;SDS011;5023;53.554;9.964;2022-10-31T20:05:23;25.08;;;18.27;;
9964;SDS011;5023;53.554;9.964;2022-10-31T20:10:26;29.52;;;20.65;;
9964;SDS011;5023;53.554;9.964;2022-10-31T20:15:33;26.13;;;17.27;;
9964;SDS011;5023;53.554;9.964;2022-10-31T20:20:35;31.83;;;21.92;;
9964;SDS011;5023;53.554;9.964;2022-10-31T20:25:36;28.48;;;19.23;;
9964;SDS011;5023;53.554;9.964;2022-10-31T20:30:47;28.45;;;19.55;;
9964;SDS011;5023;53.554;9.964;2022-10-31T20:35:49;30.23;;;21.60;;
9964;SDS011;5023;53.554;9.964;2022-10-31T20:40:51;28.65;;;18.70;;
9964;SDS011;5023;53.554;9.964;2022-10-31T20:45:58;31.73;;;20.50;;
9964;SDS011;5023;53.554;9.964;2022-10-31T20:51:02;32.00;;;21.08;;
9964;SDS011;5023;53.554;9.964;2022-10-31T20:56:07;34.83;;;21.95;;
9964;SDS011;5023;53.554;9.964;2022-10-31T21:01:12;32.83;;;21.02;;
9964;SDS011;5023;53.554;9.964;2022-10-31T21:06:16;35.28;;;22.73;;
9964;SDS011;5023;53.554;9.964;2022-10-31T21:11:19;34.67;;;22.58;;
9964;SDS011;5023;53.554;9.964;2022-10-31T21:16:24;41.25;;;27.63;;
9964;SDS011;5023;53.554;9.964;2022-10-31T21:21:28;37.33;;;23.88;;
9964;SDS011;5023;53.554;9.964;2022-10-31T21:26:33;36.17;;;23.33;;
9964;SDS011;5023;53.554;9.964;2022-10-31T21:31:38;40.20;;;22.50;;
9964;SDS011;5023;53.554;9.964;2022-10-31T21:36:41;40.60;;;26.30;;
9964;SDS011;5023;53.554;9.964;2022-10-31T21:41:43;51.90;;;33.65;;
9964;SDS011;5023;53.554;9.964;2022-10-31T21:46:46;37.72;;;24.48;;
9964;SDS011;5023;53.554;9.964;2022-10-31T21:51:48;44.17;;;28.02;;
9964;SDS011;5023;53.554;9.964;2022-10-31T21:56:50;38.40;;;24.38;;
9964;SDS011;5023;53.554;9.964;2022-10-31T22:01:55;37.75;;;23.77;;
9964;SDS011;5023;53.554;9.964;2022-10-31T22:06:59;37.28;;;24.27;;
9964;SDS011;5023;53.554;9.964;2022-10-31T22:12:01;43.58;;;25.00;;
9964;SDS011;5023;53.554;9.964;2022-10-31T22:17:08;50.45;;;32.85;;
9964;SDS011;5023;53.554;9.964;2022-10-31T22:22:11;37.88;;;25.08;;
9964;SDS011;5023;53.554;9.964;2022-10-31T22:27:13;42.05;;;25.90;;
9964;SDS011;5023;53.554;9.964;2022-10-31T22:32:16;46.88;;;28.67;;
9964;SDS011;5023;53.554;9.964;2022-10-31T22:37:18;47.20;;;30.25;;
9964;SDS011;5023;53.554;9.964;2022-10-31T22:42:20;46.45;;;26.40;;
9964;SDS011;5023;53.554;9.964;2022-10-31T22:47:24;48.78;;;27.48;;
9964;SDS011;5023;53.554;9.964;2022-10-31T22:52:26;40.75;;;25.83;;
9964;SDS011;5023;53.554;9.964;2022-10-31T22:57:28;38.63;;;26.05;;
9964;SDS011;5023;53.554;9.964;2022-10-31T23:02:31;44.13;;;26.65;;
9964;SDS011;5023;53.554;9.964;2022-10-31T23:07:33;44.45;;;28.05;;
9964;SDS011;5023;53.554;9.964;2022-10-31T23:12:35;44.55;;;27.92;;
9964;SDS011;5023;53.554;9.964;2022-10-31T23:17:56;49.63;;;30.13;;
9964;SDS011;5023;53.554;9.964;2022-10-31T23:23:01;48.97;;;31.88;;
9964;SDS011;5023;53.554;9.964;2022-10-31T23:28:03;46.90;;;29.95;;
9964;SDS011;5023;53.554;9.964;2022-10-31T23:33:06;46.17;;;27.70;;
9964;SDS011;5023;53.554;9.964;2022-10-31T23:38:08;42.40;;;27.17;;
9964;SDS011;5023;53.554;9.964;2022-10-31T23:43:10;39.70;;;26.17;;
9964;SDS011;5023;53.554;9.964;2022-10-31T23:48:14;51.92;;;31.23;;
9964;SDS011;5023;53.554;9.964;2022-10-31T23:53:16;43.60;;;26.98;;
9964;SDS011;5023;53.554;9.964;2022-10-31T23:58:18;42.63;;;26.63;;
